createdAt,value
2022-08-31T00:00:59.807Z,64.68
2022-08-31T00:06:13.071Z,64.92
2022-08-31T00:11:34.386Z,65.00
2022-08-31T00:16:56.121Z,65.13
2022-08-31T00:22:16.133Z,65.12
2022-08-31T00:27:27.234Z,65.37
2022-08-31T00:32:42.441Z,65.29
2022-08-31T00:38:14.400Z,65.55
2022-08-31T00:43:43.062Z,65.58
2022-08-31T00:49:01.988Z,65.71
2022-08-31T00:54:19.732Z,65.97
2022-08-31T00:59:35.473Z,66.19
2022-08-31T01:04:48.004Z,66.23
2022-08-31T01:10:18.560Z,66.38
2022-08-31T01:15:31.938Z,66.31
2022-08-31T01:21:11.590Z,66.42
2022-08-31T01:26:53.746Z,66.69
2022-08-31T01:32:06.546Z,66.76
2022-08-31T01:37:21.325Z,66.63
2022-08-31T01:42:48.406Z,66.83
2022-08-31T01:48:02.110Z,66.84
2022-08-31T01:53:14.033Z,66.95
2022-08-31T01:58:21.968Z,67.00
2022-08-31T02:03:53.440Z,67.15
2022-08-31T02:10:29.053Z,67.24
2022-08-31T02:15:42.295Z,67.49
2022-08-31T02:20:50.604Z,67.47
2022-08-31T02:25:58.679Z,67.63
2022-08-31T02:31:09.661Z,67.53
2022-08-31T02:36:18.939Z,67.71
2022-08-31T02:41:36.533Z,67.82
2022-08-31T02:47:01.325Z,67.78
2022-08-31T02:52:27.569Z,67.85
2022-08-31T02:57:40.965Z,67.90
2022-08-31T03:02:53.641Z,67.95
2022-08-31T03:09:32.881Z,68.14
2022-08-31T03:14:58.782Z,68.13
2022-08-31T03:20:44.796Z,68.15
2022-08-31T03:26:10.942Z,68.36
2022-08-31T03:31:28.251Z,68.34
2022-08-31T03:36:39.559Z,68.39
2022-08-31T03:41:48.553Z,68.40
2022-08-31T03:47:00.713Z,68.41
2022-08-31T03:52:57.037Z,68.68
2022-08-31T03:58:16.526Z,68.71
2022-08-31T04:03:24.969Z,68.68
2022-08-31T04:08:53.859Z,68.73
2022-08-31T04:14:26.368Z,68.77
2022-08-31T04:20:02.839Z,68.64
2022-08-31T04:25:21.690Z,68.90
2022-08-31T04:30:32.006Z,69.02
2022-08-31T04:35:46.813Z,69.09
2022-08-31T04:40:54.185Z,68.97
2022-08-31T04:46:01.977Z,69.13
2022-08-31T04:51:14.514Z,69.25
2022-08-31T04:56:27.270Z,69.18
2022-08-31T05:01:43.231Z,69.35
2022-08-31T05:07:29.387Z,69.48
2022-08-31T05:12:38.188Z,69.43
2022-08-31T05:17:45.429Z,69.35
2022-08-31T05:22:51.648Z,69.41
2022-08-31T05:28:23.759Z,69.44
2022-08-31T05:33:34.324Z,69.42
2022-08-31T05:38:42.437Z,69.21
2022-08-31T05:43:51.020Z,69.28
2022-08-31T05:49:04.783Z,69.30
2022-08-31T05:54:17.853Z,69.23
2022-08-31T05:59:45.242Z,69.12
2022-08-31T06:04:57.855Z,68.82
2022-08-31T06:10:09.371Z,68.60
2022-08-31T06:15:22.880Z,68.21
2022-08-31T06:20:32.766Z,67.65
2022-08-31T06:25:48.169Z,67.31
2022-08-31T06:30:56.003Z,66.60
2022-08-31T06:36:05.255Z,65.90
2022-08-31T06:41:52.823Z,65.25
2022-08-31T06:47:26.361Z,64.75
2022-08-31T06:52:38.959Z,64.53
2022-08-31T06:58:07.016Z,63.90
2022-08-31T07:03:33.509Z,63.47
2022-08-31T07:08:42.893Z,62.92
2022-08-31T07:13:51.818Z,62.21
2022-08-31T07:19:07.617Z,61.51
2022-08-31T07:24:18.132Z,60.81
2022-08-31T07:29:32.377Z,60.48
2022-08-31T07:34:40.570Z,59.58
2022-08-31T07:40:31.958Z,59.14
2022-08-31T07:45:42.046Z,58.58
2022-08-31T07:50:53.581Z,57.16
2022-08-31T07:56:25.839Z,57.41
2022-08-31T08:01:49.431Z,56.46
2022-08-31T08:07:01.590Z,55.65
2022-08-31T08:12:29.685Z,54.80
2022-08-31T08:17:58.022Z,54.16
2022-08-31T08:23:14.200Z,53.45
2022-08-31T08:28:44.809Z,52.56
2022-08-31T08:33:55.760Z,52.09
2022-08-31T08:39:07.463Z,51.86
2022-08-31T08:44:19.068Z,51.19
2022-08-31T08:49:40.023Z,50.30
2022-08-31T08:54:54.990Z,49.99
2022-08-31T09:00:08.632Z,49.65
2022-08-31T09:06:05.018Z,50.13
2022-08-31T09:11:20.588Z,50.55
2022-08-31T09:16:39.454Z,50.11
2022-08-31T09:21:50.849Z,50.11
2022-08-31T09:27:18.355Z,50.10
2022-08-31T09:32:32.301Z,49.41
2022-08-31T09:37:46.632Z,49.36
2022-08-31T09:43:07.449Z,49.67
2022-08-31T09:48:16.830Z,49.91
2022-08-31T09:53:45.663Z,50.07
2022-08-31T09:58:57.964Z,49.98
2022-08-31T10:04:20.907Z,49.90
2022-08-31T10:09:47.734Z,50.05
2022-08-31T10:15:05.060Z,50.11
2022-08-31T10:20:30.329Z,49.96
2022-08-31T10:25:48.699Z,49.61
2022-08-31T10:31:17.162Z,49.51
2022-08-31T10:36:36.889Z,49.73
2022-08-31T10:41:51.432Z,50.13
2022-08-31T10:47:03.047Z,50.28
2022-08-31T10:52:18.734Z,50.62
2022-08-31T10:57:38.419Z,50.77
2022-08-31T11:03:01.767Z,50.84
2022-08-31T11:08:35.466Z,50.80
2022-08-31T11:14:24.831Z,50.76
2022-08-31T11:19:51.130Z,50.76
2022-08-31T11:25:19.673Z,50.89
2022-08-31T11:30:31.866Z,50.67
2022-08-31T11:36:06.139Z,50.62
2022-08-31T11:41:39.476Z,50.59
2022-08-31T11:47:08.558Z,50.58
2022-08-31T11:52:43.526Z,50.79
2022-08-31T11:58:30.625Z,50.76
2022-08-31T12:03:55.427Z,50.71
2022-08-31T12:09:31.316Z,50.31
2022-08-31T12:14:50.399Z,50.40
2022-08-31T12:20:07.909Z,50.54
2022-08-31T12:25:28.736Z,50.50
2022-08-31T12:30:36.842Z,50.29
2022-08-31T12:35:49.812Z,50.27
2022-08-31T12:41:07.554Z,50.27
2022-08-31T12:46:46.211Z,50.35
2022-08-31T12:52:00.889Z,50.30
2022-08-31T12:57:30.731Z,50.37
2022-08-31T13:02:45.624Z,50.47
2022-08-31T13:07:53.892Z,50.57
2022-08-31T13:13:06.041Z,50.70
2022-08-31T13:18:28.426Z,50.72
2022-08-31T13:23:39.160Z,50.99
2022-08-31T13:28:58.266Z,50.76
2022-08-31T13:34:27.013Z,50.61
2022-08-31T13:39:48.969Z,50.38
2022-08-31T13:45:04.488Z,50.36
2022-08-31T13:50:21.986Z,50.43
2022-08-31T13:55:38.190Z,50.25
2022-08-31T14:00:50.704Z,50.23
2022-08-31T14:06:16.819Z,50.11
2022-08-31T14:11:29.389Z,50.08
2022-08-31T14:16:45.230Z,49.78
2022-08-31T14:22:29.573Z,49.63
2022-08-31T14:27:42.545Z,49.53
2022-08-31T14:32:54.427Z,49.38
2022-08-31T14:38:02.029Z,49.15
2022-08-31T14:43:16.505Z,49.16
2022-08-31T14:48:27.223Z,48.96
2022-08-31T14:53:37.419Z,48.91
2022-08-31T14:58:45.062Z,49.15
2022-08-31T15:03:52.515Z,48.79
2022-08-31T15:09:11.230Z,48.72
2022-08-31T15:14:36.843Z,48.66
2022-08-31T15:19:45.088Z,48.62
2022-08-31T15:24:56.499Z,48.55
2022-08-31T15:30:26.205Z,48.33
2022-08-31T15:35:41.904Z,48.42
2022-08-31T15:40:55.247Z,48.41
2022-08-31T15:46:05.702Z,48.27
2022-08-31T15:51:20.951Z,48.46
2022-08-31T15:56:32.199Z,48.45
2022-08-31T16:01:40.522Z,48.51
2022-08-31T16:06:59.538Z,48.54
2022-08-31T16:12:19.431Z,48.49
2022-08-31T16:17:38.339Z,48.70
2022-08-31T16:23:07.421Z,48.55
2022-08-31T16:28:15.662Z,48.73
2022-08-31T16:33:25.499Z,48.87
2022-08-31T16:38:31.270Z,48.75
2022-08-31T16:43:39.133Z,48.91
2022-08-31T16:49:06.568Z,48.90
2022-08-31T16:54:14.247Z,49.11
2022-08-31T16:59:26.266Z,48.89
2022-08-31T17:04:54.328Z,49.14
2022-08-31T17:10:07.279Z,49.13
2022-08-31T17:15:21.058Z,49.19
2022-08-31T17:20:31.336Z,49.50
2022-08-31T17:25:42.343Z,49.93
2022-08-31T17:30:50.038Z,49.96
2022-08-31T17:35:56.063Z,49.93
2022-08-31T17:41:09.676Z,50.24
2022-08-31T17:46:17.983Z,50.51
2022-08-31T17:51:31.012Z,50.39
2022-08-31T17:56:47.754Z,50.43
2022-08-31T18:02:07.998Z,50.51
2022-08-31T18:07:16.092Z,50.71
2022-08-31T18:12:27.633Z,50.73
2022-08-31T18:17:35.702Z,50.73
2022-08-31T18:22:43.303Z,50.93
2022-08-31T18:27:50.844Z,51.04
2022-08-31T18:32:59.719Z,51.17
2022-08-31T18:38:07.396Z,51.33
2022-08-31T18:43:33.641Z,51.43
2022-08-31T18:49:01.113Z,51.60
2022-08-31T18:54:17.532Z,51.73
2022-08-31T18:59:33.487Z,51.86
2022-08-31T19:04:41.492Z,51.99
2022-08-31T19:09:52.336Z,52.28
2022-08-31T19:15:04.246Z,52.40
2022-08-31T19:20:19.191Z,52.40
2022-08-31T19:25:26.595Z,52.80
2022-08-31T19:30:35.140Z,52.87
2022-08-31T19:35:45.889Z,53.20
2022-08-31T19:40:53.622Z,53.34
2022-08-31T19:46:10.958Z,53.35
2022-08-31T19:51:20.593Z,53.61
2022-08-31T19:56:31.307Z,53.66
2022-08-31T20:01:41.768Z,54.20
2022-08-31T20:07:24.244Z,54.42
2022-08-31T20:12:39.940Z,54.60
2022-08-31T20:17:48.228Z,54.88
2022-08-31T20:22:55.546Z,54.99
2022-08-31T20:28:07.477Z,55.24
2022-08-31T20:33:16.230Z,55.49
2022-08-31T20:38:39.549Z,55.74
2022-08-31T20:43:49.209Z,55.92
2022-08-31T20:49:17.507Z,56.03
2022-08-31T20:54:31.620Z,56.34
2022-08-31T20:59:42.379Z,56.65
2022-08-31T21:04:52.738Z,56.89
2022-08-31T21:10:01.990Z,57.03
2022-08-31T21:15:13.764Z,57.27
2022-08-31T21:20:21.901Z,57.40
2022-08-31T21:25:47.106Z,57.59
2022-08-31T21:31:15.819Z,57.73
2022-08-31T21:36:34.778Z,58.13
2022-08-31T21:41:46.299Z,58.18
2022-08-31T21:46:54.850Z,58.60
2022-08-31T21:52:05.730Z,58.64
2022-08-31T21:57:18.167Z,58.89
2022-08-31T22:02:26.288Z,58.98
2022-08-31T22:07:40.426Z,59.40
2022-08-31T22:12:48.266Z,59.52
2022-08-31T22:18:15.474Z,59.70
2022-08-31T22:23:24.662Z,59.91
2022-08-31T22:28:32.854Z,60.02
2022-08-31T22:33:47.360Z,60.08
2022-08-31T22:38:56.594Z,60.36
2022-08-31T22:44:23.010Z,60.72
2022-08-31T22:49:53.798Z,60.83
2022-08-31T22:55:22.458Z,61.06
2022-08-31T23:00:36.267Z,61.15
2022-08-31T23:05:44.200Z,61.37
2022-08-31T23:10:54.814Z,61.42
2022-08-31T23:16:27.130Z,61.66
2022-08-31T23:21:52.923Z,61.93
2022-08-31T23:27:10.738Z,61.95
2022-08-31T23:32:26.402Z,62.10
2022-08-31T23:37:34.628Z,62.27
2022-08-31T23:42:43.075Z,61.86
2022-08-31T23:47:53.786Z,61.83
2022-08-31T23:53:01.192Z,61.65
2022-08-31T23:58:12.139Z,61.67
